Close

Questo sito utlizza cookie. Può leggere come li usiamo nella nostra Privacy Policy.

Ronchi Tower
Ronchi Tower

From Facebook

METAR & TAF

2018/07/18 21:50 LIPQ 182150Z 08003KT CAVOK 22/17 Q1013
2018/07/18 20:06 TAF AMD LIPQ 182000Z 1820/1918 VRB04KT CAVOK BECMG 1910/1912 20010KT BECMG 1916/1918 VRB05KT
2018/07/18 21:50 LIPZ 182150Z 20007KT CAVOK 26/23 Q1012 NOSIG
2018/07/18 18:22 TAF LIPZ 181700Z 1818/1924 16010KT CAVOK BECMG 1818/1820 03008KT BECMG 1910/1912 16012KT BECMG 1918/1920 VRB05KT
2018/07/18 21:50 LIPH 182150Z 03002KT CAVOK 24/21 Q1012
2018/07/18 18:22 TAF LIPH 181700Z 1818/1918 VRB04KT CAVOK
2018/07/18 21:50 LIRF 182150Z 00000KT CAVOK 24/22 Q1014 NOSIG
2018/07/18 18:22 TAF LIRF 181700Z 1818/1924 29011KT CAVOK BECMG 1818/1820 VRB05KT BECMG 1908/1910 27012KT BECMG 1916/1918 VRB05KT
2018/07/18 21:50 LIML 182150Z 27004KT CAVOK 25/14 Q1012 NOSIG
2018/07/18 18:22 TAF LIML 181700Z 1818/1918 24005KT CAVOK
2018/07/18 21:50 EDDM 182150Z 33003KT CAVOK 19/12 Q1017 NOSIG
2018/07/18 18:27 TAF EDDM 181700Z 1818/1924 31010KT CAVOK BECMG 1818/1820 36004KT
2018/07/18 21:50 EGSS 182150Z AUTO 12007KT 9999 NCD 20/11 Q1019
2018/07/18 18:15 TAF EGSS 181654Z 1818/1924 VRB03KT 9999 SCT040 PROB30 1902/1907 8000

FlightRadar24

Radar Meteo

Traffic data

Marzo 2018

Passeggeri: 57555-3,4% (rank: 23)
Nazionali 39679 +1,0% 21°
Internazionali 17689 -11,7% 23°

Movimenti: 1074-16,3% (rank: 21)
Tot commerciale 653 -10,3% 22°
Aviazione generale 421 -24,1%

Cargo (tons): 96,3109,5% (rank: 18)

Gennaio - Marzo 2018

Passeggeri: 155953-1,4% (rank: 23)
Nazionali 108431 +3,9% 21°
Internazionali 47066 -11,5% 22°

Movimenti: 3163-14,5% (rank: 21)
Tot commerciale 1876 -7,3% 21°
Aviazione generale 1287 -23,3%

Cargo (tons): 125,6+16,7% (rank: 21)

Photo

Douglas DC-6B
Douglas DC-6B
Distinct views: 17
Eurocopter EC-145
Eurocopter EC-145
Distinct views: 58
Eurocopter EC-145
Eurocopter EC-145
Distinct views: 196
ATR ATR-72
ATR ATR-72
Total views: 1320